Terminal Aerodrome Forecast
Issued by NWS Pittsburgh, PA

Current Version | Previous Version | Graphics & Text | Print | Product List | Glossary On
Versions: 1 2 3 4 5 6 7 8 9 10 11 12 13 14 15 16 17 18 19 20 21 22 23 24 25 26 27 28 29 30 31 32 33
999
FTUS41 KPBZ 281856 AAA
TAFPIT
TAF AMD
KPIT 281856Z 2819/2924 27010KT P6SM -TSRA BKN040CB
     FM281930 27005KT P6SM SCT040 BKN200
     FM282200 28005KT P6SM VCTS BKN040CB
     FM290000 32003KT P6SM BKN150=

USA.gov is the U.S. government's official web portal to all federal, state and local government web resources and services.